Boulder Creek, CA

8:51 PM PDT on October 01, 2014 (GMT -0700)
Moffett Federal Air Field | Change Station
CLOSE
Current Station
Airport
Location: Moffett NAS,
Elevation: 39 ft
Nearby Weather Stations
Active Advisory: Heat Advisory

Elev 39 ft 37.41 °N, 122.05 °W | Updated 55 minutes ago

Clear
Clear
72 °F
Feels Like 72 °F
N
6
Wind Variable Wind from NW

Today
High -- | Low -- °F
--% Chance of Precip.
Yesterday
High -- | Low -- °F
Precip. -- in
7:04 AM 6:51 PM
First Quarter, 54% visible
Pressure 29.91 in
Visibility 10.0 miles
Clouds Clear
Dew Point 47 °F
Humidity 41%
Rainfall 0.00 in
Snow Depth 1 in , 0 in , 0 in
UV 0 out of 12
Pollen 3.60 out of 12
Ozone Good
PM2.5 Moderate
Flu Activity Not available.
METAR KNUQ 020256Z 31005KT 10SM CLR 22/08 A2990 RMK AO2 SLP126 T02220083 53014

More Conditions Fewer Conditions

Pressure 29.91 in
Visibility 10.0 miles
Clouds Clear
Dew Point 47 °F
Humidity 41%
Rainfall 0.00 in
Snow Depth 1 in , 0 in , 0 in
UV 0 out of 12
Pollen 3.60 out of 12
Ozone Good
PM2.5 Moderate
Flu Activity Not available.
METAR KNUQ 020256Z 31005KT 10SM CLR 22/08 A2990 RMK AO2 SLP126 T02220083 53014

More Conditions Fewer Conditions

10-Day Weather Forecast

Almanac

Astronomy

Oct. 01, 2014 Rise Set
Actual Time 7:04 AM PDT 6:51 PM PDT
Civil Twilight 6:38 AM PDT 7:17 PM PDT
Nautical Twilight 6:07 AM PDT 7:47 PM PDT
Astronomical Twilight 5:37 AM PDT 8:17 PM PDT
Moon 2:03 PM PDT (10/1) No Moon Set
Length of Visible Light 12h 39m
Length of Day
11h 47m
Tomorrow will be 2m 20s shorter.
First Quarter, 54% of the Moon is Illuminated
Today
First Quarter
Oct 8
Full
Oct 15
Last Quarter
Oct 23
New
Oct 30
First Quarter

Today's Extremes

State Highs State Lows

Community

WunderPhotos

Upload Photos

1,758,170 photos uploaded!

Nearby

Air Quality

  Air Quality AQ Index Pollutant
Yesterday Good
OZONE
Yesterday Good
PM2.5
Current Moderate
PM2.5
Current Good
OZONE
Wednesday Moderate
OZONE
Thursday Moderate
OZONE
Friday Moderate
OZONE
Saturday Moderate
OZONE
Sunday Good
OZONE
Monday Good
OZONE

Snow Depth

Station Depth Elevation
Echo Peak 1 in 7800 ft
Hagan's Meadow 0 in 8000 ft
Tahoe City Cross 0 in 6750 ft
Summit Meadow 1 in 9122 ft
Spratt Creek 0 in 6200 ft

Earthquake Activity

City Distance Mag. Time & Date
South Dos Palos, California 79 miles 3.0 11:17 AM PDT
2014-10-01
Shandon, California 137 miles 2.9 5:34 PM PDT
2014-09-30
East Foothills, California 29 miles 2.6 3:34 PM PDT
2014-09-30
South Dos Palos, California 79 miles 2.7 3:08 PM PDT
2014-09-30
Minimum magnitude displayed is 2.5.

Coastal Water Temperatures

Place Temperature
Monterey, CA 63.0 °F
Redwood City, CA 71.1 °F

Nearby Weather Stations